Sebastian, FL

10:05 PM EDT on September 01, 2014 (GMT -0400)
OZWORLD | Change Station
CLOSE
Current Station
Personal Weather Station
Location: Sebastian, FL
Elevation: 21 ft
Nearby Weather Stations

Elev 21 ft 27.80 °N, 80.48 °W | Updated 3 seconds ago

Clear
Clear
79.8 °F
Feels Like 84 °F
N
0.0
Wind Variable Wind from SE
Gusts 0.0 mph

Today
High -- | Low -- °F
--% Chance of Precip.
Yesterday
High -- | Low -- °F
Precip. -- in
7:00 AM 7:42 PM
Waxing Crescent, 46% visible
Pressure 30.08 in
Visibility 10.0 miles
Clouds Clear
Heat Index 84 °F
Dew Point 73 °F
Humidity 79%
Rainfall 0.00 in
Snow Depth Not available.
UV 0 out of 12
Pollen 7.80 out of 12
Air Quality Not available.
Flu Activity Not available.
METAR KVRB 020153Z AUTO 09005KT 10SM CLR 26/22 A3008 RMK AO2 SLP186 T02610222 $

More Conditions Fewer Conditions

Pressure 30.08 in
Visibility 10.0 miles
Clouds Clear
Heat Index 84 °F
Dew Point 73 °F
Humidity 79%
Rainfall 0.00 in
Snow Depth Not available.
UV 0 out of 12
Pollen 7.80 out of 12
Air Quality Not available.
Flu Activity Not available.
METAR KVRB 020153Z AUTO 09005KT 10SM CLR 26/22 A3008 RMK AO2 SLP186 T02610222 $

More Conditions Fewer Conditions

Nowcast | as of 9:56 PM EDT on September 1, 2014

Through late night...isolated showers over the coastal waters will remain possible with only slow westward movement towards the Treasure Coast. Skies will become partly cloudy over east central Florida with light winds. Temperatures in the 70s for lows. Additional details...including graphics are available online at: http://www.Srh.NOAA.Gov/mlb/blog.Php

×

10-Day Weather Forecast

Almanac

Astronomy

Sep. 01, 2014 Rise Set
Actual Time 7:00 AM EDT 7:42 PM EDT
Civil Twilight 6:36 AM EDT 8:06 PM EDT
Nautical Twilight 6:08 AM EDT 8:34 PM EDT
Astronomical Twilight 5:40 AM EDT 9:02 PM EDT
Moon 1:10 PM EDT (9/1) No Moon Set
Length of Visible Light 13h 29m
Length of Day
12h 41m
Tomorrow will be 1m 35s shorter.
Waxing Crescent, 46% of the Moon is Illuminated
Today
Waxing Crescent
Sep 2
First Quarter
Sep 8
Full
Sep 15
Last Quarter
Sep 24
New

Today's Extremes

State Highs State Lows

Community

WunderPhotos

Upload Photos

1,749,493 photos uploaded!

Nearby

Snow Depth

Station Depth Elevation
No new snow has been reported.

Earthquake Activity

City Distance Mag. Time & Date
No recent earthquake activity has been reported nearby.
Minimum magnitude displayed is 2.5.

Coastal Water Temperatures

Place Temperature
Lake Worth, FL 87.1 °F
Trident Pier, FL 87.1 °F
Virginia Key, FL 87.1 °F

Nearby Weather Stations